sensor_id;sensor_type;location;lat;lon;timestamp;temperature;humidity
2539;DHT22;1280;49.760;9.664;2024-02-21T00:00:59;10.30;74.70
2539;DHT22;1280;49.760;9.664;2024-02-21T00:03:28;10.40;74.80
2539;DHT22;1280;49.760;9.664;2024-02-21T00:05:56;10.30;74.80
2539;DHT22;1280;49.760;9.664;2024-02-21T00:08:24;10.40;74.80
2539;DHT22;1280;49.760;9.664;2024-02-21T00:10:53;10.40;74.90
2539;DHT22;1280;49.760;9.664;2024-02-21T00:13:21;10.40;74.80
2539;DHT22;1280;49.760;9.664;2024-02-21T00:15:49;10.40;74.90
2539;DHT22;1280;49.760;9.664;2024-02-21T00:18:18;10.40;75.00
2539;DHT22;1280;49.760;9.664;2024-02-21T00:20:47;10.40;75.00
2539;DHT22;1280;49.760;9.664;2024-02-21T00:23:15;10.40;75.00
2539;DHT22;1280;49.760;9.664;2024-02-21T00:25:43;10.40;75.00
2539;DHT22;1280;49.760;9.664;2024-02-21T00:28:11;10.40;75.00
2539;DHT22;1280;49.760;9.664;2024-02-21T00:30:40;10.40;75.00
2539;DHT22;1280;49.760;9.664;2024-02-21T00:33:08;10.40;75.00
2539;DHT22;1280;49.760;9.664;2024-02-21T00:35:37;10.40;75.00
2539;DHT22;1280;49.760;9.664;2024-02-21T00:38:05;10.40;75.00
2539;DHT22;1280;49.760;9.664;2024-02-21T00:40:34;10.30;75.00
2539;DHT22;1280;49.760;9.664;2024-02-21T00:43:04;10.30;75.10
2539;DHT22;1280;49.760;9.664;2024-02-21T00:45:32;10.30;75.10
2539;DHT22;1280;49.760;9.664;2024-02-21T00:48:00;10.30;75.20
2539;DHT22;1280;49.760;9.664;2024-02-21T00:50:28;10.30;75.20
2539;DHT22;1280;49.760;9.664;2024-02-21T00:52:57;10.30;75.20
2539;DHT22;1280;49.760;9.664;2024-02-21T00:55:26;10.40;75.20
2539;DHT22;1280;49.760;9.664;2024-02-21T00:57:54;10.30;75.20
2539;DHT22;1280;49.760;9.664;2024-02-21T01:00:22;10.40;75.20
2539;DHT22;1280;49.760;9.664;2024-02-21T01:02:50;10.40;75.20
2539;DHT22;1280;49.760;9.664;2024-02-21T01:05:20;10.40;75.30
2539;DHT22;1280;49.760;9.664;2024-02-21T01:07:51;10.40;75.30
2539;DHT22;1280;49.760;9.664;2024-02-21T01:10:20;10.40;75.30
2539;DHT22;1280;49.760;9.664;2024-02-21T01:12:49;10.40;75.30
2539;DHT22;1280;49.760;9.664;2024-02-21T01:15:17;10.40;75.30
2539;DHT22;1280;49.760;9.664;2024-02-21T01:17:45;10.40;75.30
2539;DHT22;1280;49.760;9.664;2024-02-21T01:20:13;10.40;75.30
2539;DHT22;1280;49.760;9.664;2024-02-21T01:22:42;10.40;75.30
2539;DHT22;1280;49.760;9.664;2024-02-21T01:25:10;10.40;75.30
2539;DHT22;1280;49.760;9.664;2024-02-21T01:27:40;10.40;75.30
2539;DHT22;1280;49.760;9.664;2024-02-21T01:30:09;10.40;75.30
2539;DHT22;1280;49.760;9.664;2024-02-21T01:32:38;10.40;75.30
2539;DHT22;1280;49.760;9.664;2024-02-21T01:35:08;10.40;75.40
2539;DHT22;1280;49.760;9.664;2024-02-21T01:37:36;10.40;75.30
2539;DHT22;1280;49.760;9.664;2024-02-21T01:40:05;10.40;75.30
2539;DHT22;1280;49.760;9.664;2024-02-21T01:42:39;10.40;75.40
2539;DHT22;1280;49.760;9.664;2024-02-21T01:45:08;10.40;75.40
2539;DHT22;1280;49.760;9.664;2024-02-21T01:47:37;10.40;75.40
2539;DHT22;1280;49.760;9.664;2024-02-21T01:50:06;10.40;75.40
2539;DHT22;1280;49.760;9.664;2024-02-21T01:52:35;10.40;75.50
2539;DHT22;1280;49.760;9.664;2024-02-21T01:55:05;10.40;75.50
2539;DHT22;1280;49.760;9.664;2024-02-21T01:57:34;10.40;75.50
2539;DHT22;1280;49.760;9.664;2024-02-21T02:00:05;10.30;75.50
2539;DHT22;1280;49.760;9.664;2024-02-21T02:02:37;10.30;75.60
2539;DHT22;1280;49.760;9.664;2024-02-21T02:05:07;10.30;75.70
2539;DHT22;1280;49.760;9.664;2024-02-21T02:07:35;10.30;75.80
2539;DHT22;1280;49.760;9.664;2024-02-21T02:10:05;10.30;75.80
2539;DHT22;1280;49.760;9.664;2024-02-21T02:12:33;10.30;75.90
2539;DHT22;1280;49.760;9.664;2024-02-21T02:15:04;10.30;75.90
2539;DHT22;1280;49.760;9.664;2024-02-21T02:17:33;10.30;76.00
2539;DHT22;1280;49.760;9.664;2024-02-21T02:20:01;10.20;76.00
2539;DHT22;1280;49.760;9.664;2024-02-21T02:22:35;10.20;76.10
2539;DHT22;1280;49.760;9.664;2024-02-21T02:25:06;10.20;76.30
2539;DHT22;1280;49.760;9.664;2024-02-21T02:27:41;10.20;76.30
2539;DHT22;1280;49.760;9.664;2024-02-21T02:30:11;10.20;76.40
2539;DHT22;1280;49.760;9.664;2024-02-21T02:32:39;10.20;76.40
2539;DHT22;1280;49.760;9.664;2024-02-21T02:35:07;10.20;76.50
2539;DHT22;1280;49.760;9.664;2024-02-21T02:37:35;10.20;76.50
2539;DHT22;1280;49.760;9.664;2024-02-21T02:40:07;10.20;76.50
2539;DHT22;1280;49.760;9.664;2024-02-21T02:42:36;10.20;76.70
2539;DHT22;1280;49.760;9.664;2024-02-21T02:45:05;10.20;76.80
2539;DHT22;1280;49.760;9.664;2024-02-21T02:47:33;10.20;76.80
2539;DHT22;1280;49.760;9.664;2024-02-21T02:50:02;10.20;76.80
2539;DHT22;1280;49.760;9.664;2024-02-21T02:52:30;10.20;76.80
2539;DHT22;1280;49.760;9.664;2024-02-21T02:54:58;10.10;76.90
2539;DHT22;1280;49.760;9.664;2024-02-21T02:57:29;10.10;77.00
2539;DHT22;1280;49.760;9.664;2024-02-21T02:59:57;10.10;77.00
2539;DHT22;1280;49.760;9.664;2024-02-21T03:02:25;10.10;77.10
2539;DHT22;1280;49.760;9.664;2024-02-21T03:04:56;10.20;77.10
2539;DHT22;1280;49.760;9.664;2024-02-21T03:07:24;10.20;77.10
2539;DHT22;1280;49.760;9.664;2024-02-21T03:09:52;10.10;77.20
2539;DHT22;1280;49.760;9.664;2024-02-21T03:12:21;10.10;77.20
2539;DHT22;1280;49.760;9.664;2024-02-21T03:14:56;10.10;77.30
2539;DHT22;1280;49.760;9.664;2024-02-21T03:17:24;10.10;77.40
2539;DHT22;1280;49.760;9.664;2024-02-21T03:19:54;10.10;77.30
2539;DHT22;1280;49.760;9.664;2024-02-21T03:22:22;10.10;77.40
2539;DHT22;1280;49.760;9.664;2024-02-21T03:24:50;10.10;77.40
2539;DHT22;1280;49.760;9.664;2024-02-21T03:27:18;10.10;77.50
2539;DHT22;1280;49.760;9.664;2024-02-21T03:29:46;10.10;77.50
2539;DHT22;1280;49.760;9.664;2024-02-21T03:32:15;10.10;77.60
2539;DHT22;1280;49.760;9.664;2024-02-21T03:34:43;10.10;77.60
2539;DHT22;1280;49.760;9.664;2024-02-21T03:37:11;10.10;77.60
2539;DHT22;1280;49.760;9.664;2024-02-21T03:39:41;10.10;77.50
2539;DHT22;1280;49.760;9.664;2024-02-21T03:42:10;10.10;77.60
2539;DHT22;1280;49.760;9.664;2024-02-21T03:44:38;10.10;77.60
2539;DHT22;1280;49.760;9.664;2024-02-21T03:47:06;10.10;77.70
2539;DHT22;1280;49.760;9.664;2024-02-21T03:49:40;10.10;77.70
2539;DHT22;1280;49.760;9.664;2024-02-21T03:52:09;10.10;77.70
2539;DHT22;1280;49.760;9.664;2024-02-21T03:54:37;10.10;77.70
2539;DHT22;1280;49.760;9.664;2024-02-21T03:57:05;10.10;77.70
2539;DHT22;1280;49.760;9.664;2024-02-21T03:59:33;10.10;77.80
2539;DHT22;1280;49.760;9.664;2024-02-21T04:02:01;10.00;77.80
2539;DHT22;1280;49.760;9.664;2024-02-21T04:04:30;10.00;77.80
2539;DHT22;1280;49.760;9.664;2024-02-21T04:07:00;10.00;77.90
2539;DHT22;1280;49.760;9.664;2024-02-21T04:09:29;10.10;77.90
2539;DHT22;1280;49.760;9.664;2024-02-21T04:11:57;10.00;77.90
2539;DHT22;1280;49.760;9.664;2024-02-21T04:14:25;10.10;77.90
2539;DHT22;1280;49.760;9.664;2024-02-21T04:16:57;10.00;77.90
2539;DHT22;1280;49.760;9.664;2024-02-21T04:19:25;10.00;77.90
2539;DHT22;1280;49.760;9.664;2024-02-21T04:21:53;10.00;77.90
2539;DHT22;1280;49.760;9.664;2024-02-21T04:24:22;10.00;77.90
2539;DHT22;1280;49.760;9.664;2024-02-21T04:26:52;10.00;78.00
2539;DHT22;1280;49.760;9.664;2024-02-21T04:29:20;10.00;77.90
2539;DHT22;1280;49.760;9.664;2024-02-21T04:31:48;10.00;77.90
2539;DHT22;1280;49.760;9.664;2024-02-21T04:34:16;10.00;77.90
2539;DHT22;1280;49.760;9.664;2024-02-21T04:36:45;9.90;77.90
2539;DHT22;1280;49.760;9.664;2024-02-21T04:39:13;9.90;77.80
2539;DHT22;1280;49.760;9.664;2024-02-21T04:41:42;9.90;78.00
2539;DHT22;1280;49.760;9.664;2024-02-21T04:44:10;9.80;78.00
2539;DHT22;1280;49.760;9.664;2024-02-21T04:46:42;9.80;78.00
2539;DHT22;1280;49.760;9.664;2024-02-21T04:49:10;9.80;78.00
2539;DHT22;1280;49.760;9.664;2024-02-21T04:51:40;9.70;77.80
2539;DHT22;1280;49.760;9.664;2024-02-21T04:54:08;9.70;78.00
2539;DHT22;1280;49.760;9.664;2024-02-21T04:56:36;9.60;78.00
2539;DHT22;1280;49.760;9.664;2024-02-21T04:59:05;9.60;78.10
2539;DHT22;1280;49.760;9.664;2024-02-21T05:01:33;9.60;78.20
2539;DHT22;1280;49.760;9.664;2024-02-21T05:04:01;9.60;78.10
2539;DHT22;1280;49.760;9.664;2024-02-21T05:06:29;9.60;78.20
2539;DHT22;1280;49.760;9.664;2024-02-21T05:08:57;9.50;78.30
2539;DHT22;1280;49.760;9.664;2024-02-21T05:11:27;9.50;78.30
2539;DHT22;1280;49.760;9.664;2024-02-21T05:13:55;9.50;78.30
2539;DHT22;1280;49.760;9.664;2024-02-21T05:16:24;9.50;78.30
2539;DHT22;1280;49.760;9.664;2024-02-21T05:18:52;9.50;78.40
2539;DHT22;1280;49.760;9.664;2024-02-21T05:21:20;9.50;78.40
2539;DHT22;1280;49.760;9.664;2024-02-21T05:23:50;9.50;78.40
2539;DHT22;1280;49.760;9.664;2024-02-21T05:26:21;9.50;78.40
2539;DHT22;1280;49.760;9.664;2024-02-21T05:28:49;9.50;78.40
2539;DHT22;1280;49.760;9.664;2024-02-21T05:31:19;9.50;78.50
2539;DHT22;1280;49.760;9.664;2024-02-21T05:33:49;9.50;78.50
2539;DHT22;1280;49.760;9.664;2024-02-21T05:36:17;9.50;78.60
2539;DHT22;1280;49.760;9.664;2024-02-21T05:38:45;9.50;78.50
2539;DHT22;1280;49.760;9.664;2024-02-21T05:41:21;9.40;78.50
2539;DHT22;1280;49.760;9.664;2024-02-21T05:43:50;9.40;78.50
2539;DHT22;1280;49.760;9.664;2024-02-21T05:46:19;9.40;78.50
2539;DHT22;1280;49.760;9.664;2024-02-21T05:48:48;9.30;78.60
2539;DHT22;1280;49.760;9.664;2024-02-21T05:51:16;9.30;78.60
2539;DHT22;1280;49.760;9.664;2024-02-21T05:53:44;9.30;78.50
2539;DHT22;1280;49.760;9.664;2024-02-21T05:56:14;9.30;78.60
2539;DHT22;1280;49.760;9.664;2024-02-21T05:58:42;9.30;78.60
2539;DHT22;1280;49.760;9.664;2024-02-21T06:01:11;9.30;78.60
2539;DHT22;1280;49.760;9.664;2024-02-21T06:03:39;9.30;78.50
2539;DHT22;1280;49.760;9.664;2024-02-21T06:06:10;9.30;78.50
2539;DHT22;1280;49.760;9.664;2024-02-21T06:08:39;9.30;78.50
2539;DHT22;1280;49.760;9.664;2024-02-21T06:11:07;9.20;78.50
2539;DHT22;1280;49.760;9.664;2024-02-21T06:13:38;9.20;78.60
2539;DHT22;1280;49.760;9.664;2024-02-21T06:16:07;9.20;78.70
2539;DHT22;1280;49.760;9.664;2024-02-21T06:18:35;9.20;78.60
2539;DHT22;1280;49.760;9.664;2024-02-21T06:21:04;9.20;78.60
2539;DHT22;1280;49.760;9.664;2024-02-21T06:23:34;9.10;78.50
2539;DHT22;1280;49.760;9.664;2024-02-21T06:26:04;9.10;78.50
2539;DHT22;1280;49.760;9.664;2024-02-21T06:28:32;9.10;78.50
2539;DHT22;1280;49.760;9.664;2024-02-21T06:31:00;9.10;78.50
2539;DHT22;1280;49.760;9.664;2024-02-21T06:33:28;9.10;78.50
2539;DHT22;1280;49.760;9.664;2024-02-21T06:35:56;9.10;78.40
2539;DHT22;1280;49.760;9.664;2024-02-21T06:38:24;9.10;78.40
2539;DHT22;1280;49.760;9.664;2024-02-21T06:40:54;9.10;78.40
2539;DHT22;1280;49.760;9.664;2024-02-21T06:43:22;9.00;78.40
2539;DHT22;1280;49.760;9.664;2024-02-21T06:45:50;9.00;78.40
2539;DHT22;1280;49.760;9.664;2024-02-21T06:48:19;9.00;78.40
2539;DHT22;1280;49.760;9.664;2024-02-21T06:50:49;9.00;78.50
2539;DHT22;1280;49.760;9.664;2024-02-21T06:53:16;9.00;78.50
2539;DHT22;1280;49.760;9.664;2024-02-21T06:55:44;9.00;78.70
2539;DHT22;1280;49.760;9.664;2024-02-21T06:58:14;9.00;78.80
2539;DHT22;1280;49.760;9.664;2024-02-21T07:00:43;9.10;78.80
2539;DHT22;1280;49.760;9.664;2024-02-21T07:03:11;9.20;78.80
2539;DHT22;1280;49.760;9.664;2024-02-21T07:05:39;9.20;78.80
2539;DHT22;1280;49.760;9.664;2024-02-21T07:08:07;9.20;78.80
2539;DHT22;1280;49.760;9.664;2024-02-21T07:10:36;9.20;78.80
2539;DHT22;1280;49.760;9.664;2024-02-21T07:13:04;9.20;78.80
2539;DHT22;1280;49.760;9.664;2024-02-21T07:15:33;9.20;78.80
2539;DHT22;1280;49.760;9.664;2024-02-21T07:18:04;9.30;78.80
2539;DHT22;1280;49.760;9.664;2024-02-21T07:20:32;9.30;78.80
2539;DHT22;1280;49.760;9.664;2024-02-21T07:23:03;9.30;78.80
2539;DHT22;1280;49.760;9.664;2024-02-21T07:25:32;9.30;78.70
2539;DHT22;1280;49.760;9.664;2024-02-21T07:28:01;9.30;78.70
2539;DHT22;1280;49.760;9.664;2024-02-21T07:30:30;9.30;78.70
2539;DHT22;1280;49.760;9.664;2024-02-21T07:33:01;9.30;78.70
2539;DHT22;1280;49.760;9.664;2024-02-21T07:35:29;9.30;78.70
2539;DHT22;1280;49.760;9.664;2024-02-21T07:37:59;9.30;78.70
2539;DHT22;1280;49.760;9.664;2024-02-21T07:40:29;9.30;78.70
2539;DHT22;1280;49.760;9.664;2024-02-21T07:42:57;9.30;78.70
2539;DHT22;1280;49.760;9.664;2024-02-21T07:45:25;9.30;78.80
2539;DHT22;1280;49.760;9.664;2024-02-21T07:47:53;9.30;78.80
2539;DHT22;1280;49.760;9.664;2024-02-21T07:50:22;9.40;78.80
2539;DHT22;1280;49.760;9.664;2024-02-21T07:52:51;9.40;78.80
2539;DHT22;1280;49.760;9.664;2024-02-21T07:55:19;9.40;78.90
2539;DHT22;1280;49.760;9.664;2024-02-21T07:57:47;9.40;78.90
2539;DHT22;1280;49.760;9.664;2024-02-21T08:00:17;9.40;78.90
2539;DHT22;1280;49.760;9.664;2024-02-21T08:02:48;9.40;78.90
2539;DHT22;1280;49.760;9.664;2024-02-21T08:05:16;9.50;78.90
2539;DHT22;1280;49.760;9.664;2024-02-21T08:07:48;9.50;79.00
2539;DHT22;1280;49.760;9.664;2024-02-21T08:10:17;9.50;79.00
2539;DHT22;1280;49.760;9.664;2024-02-21T08:12:46;9.50;78.90
2539;DHT22;1280;49.760;9.664;2024-02-21T08:15:14;9.60;79.00
2539;DHT22;1280;49.760;9.664;2024-02-21T08:17:42;9.60;79.00
2539;DHT22;1280;49.760;9.664;2024-02-21T08:20:10;9.60;79.00
2539;DHT22;1280;49.760;9.664;2024-02-21T08:22:39;9.60;78.90
2539;DHT22;1280;49.760;9.664;2024-02-21T08:25:09;9.60;79.00
2539;DHT22;1280;49.760;9.664;2024-02-21T08:27:37;9.60;79.10
2539;DHT22;1280;49.760;9.664;2024-02-21T08:30:06;9.60;79.00
2539;DHT22;1280;49.760;9.664;2024-02-21T08:32:36;9.70;79.10
2539;DHT22;1280;49.760;9.664;2024-02-21T08:35:05;9.70;79.20
2539;DHT22;1280;49.760;9.664;2024-02-21T08:37:33;9.70;79.10
2539;DHT22;1280;49.760;9.664;2024-02-21T08:40:01;9.70;79.20
2539;DHT22;1280;49.760;9.664;2024-02-21T08:42:39;9.80;79.20
2539;DHT22;1280;49.760;9.664;2024-02-21T08:45:08;9.80;79.30
2539;DHT22;1280;49.760;9.664;2024-02-21T08:47:39;9.80;79.20
2539;DHT22;1280;49.760;9.664;2024-02-21T08:50:07;9.90;79.30
2539;DHT22;1280;49.760;9.664;2024-02-21T08:52:52;9.90;79.20
2539;DHT22;1280;49.760;9.664;2024-02-21T08:55:20;10.00;79.20
2539;DHT22;1280;49.760;9.664;2024-02-21T08:57:53;10.00;79.10
2539;DHT22;1280;49.760;9.664;2024-02-21T09:00:21;10.00;79.20
2539;DHT22;1280;49.760;9.664;2024-02-21T09:02:54;10.10;79.20
2539;DHT22;1280;49.760;9.664;2024-02-21T09:05:23;10.10;79.20
2539;DHT22;1280;49.760;9.664;2024-02-21T09:07:52;10.10;79.30
2539;DHT22;1280;49.760;9.664;2024-02-21T09:10:20;10.20;79.30
2539;DHT22;1280;49.760;9.664;2024-02-21T09:12:48;10.20;79.20
2539;DHT22;1280;49.760;9.664;2024-02-21T09:15:18;10.20;79.30
2539;DHT22;1280;49.760;9.664;2024-02-21T09:17:47;10.30;79.30
2539;DHT22;1280;49.760;9.664;2024-02-21T09:20:16;10.30;79.20
2539;DHT22;1280;49.760;9.664;2024-02-21T09:22:45;10.40;79.20
2539;DHT22;1280;49.760;9.664;2024-02-21T09:25:15;10.40;79.20
2539;DHT22;1280;49.760;9.664;2024-02-21T09:27:45;10.50;79.10
2539;DHT22;1280;49.760;9.664;2024-02-21T09:30:14;10.50;79.00
2539;DHT22;1280;49.760;9.664;2024-02-21T09:32:44;10.50;79.00
2539;DHT22;1280;49.760;9.664;2024-02-21T09:35:12;10.50;78.90
2539;DHT22;1280;49.760;9.664;2024-02-21T09:37:41;10.50;78.80
2539;DHT22;1280;49.760;9.664;2024-02-21T09:40:10;10.50;78.90
2539;DHT22;1280;49.760;9.664;2024-02-21T09:42:39;10.50;78.90
2539;DHT22;1280;49.760;9.664;2024-02-21T09:45:09;10.50;78.90
2539;DHT22;1280;49.760;9.664;2024-02-21T09:47:54;10.60;78.80
2539;DHT22;1280;49.760;9.664;2024-02-21T09:50:26;10.50;78.80
2539;DHT22;1280;49.760;9.664;2024-02-21T09:52:56;10.50;78.90
2539;DHT22;1280;49.760;9.664;2024-02-21T09:55:25;10.60;78.80
2539;DHT22;1280;49.760;9.664;2024-02-21T09:57:55;10.60;78.70
2539;DHT22;1280;49.760;9.664;2024-02-21T10:00:25;10.70;78.70
2539;DHT22;1280;49.760;9.664;2024-02-21T10:02:56;10.70;78.70
2539;DHT22;1280;49.760;9.664;2024-02-21T10:05:24;10.70;78.60
2539;DHT22;1280;49.760;9.664;2024-02-21T10:07:55;10.70;78.60
2539;DHT22;1280;49.760;9.664;2024-02-21T10:10:25;10.70;78.60
2539;DHT22;1280;49.760;9.664;2024-02-21T10:12:54;10.80;78.60
2539;DHT22;1280;49.760;9.664;2024-02-21T10:15:23;10.80;78.60
2539;DHT22;1280;49.760;9.664;2024-02-21T10:18:00;10.80;78.60
2539;DHT22;1280;49.760;9.664;2024-02-21T10:20:31;10.80;78.60
2539;DHT22;1280;49.760;9.664;2024-02-21T10:23:04;10.90;78.60
2539;DHT22;1280;49.760;9.664;2024-02-21T10:25:36;10.90;78.50
2539;DHT22;1280;49.760;9.664;2024-02-21T10:28:08;10.90;78.50
2539;DHT22;1280;49.760;9.664;2024-02-21T10:30:49;10.90;78.40
2539;DHT22;1280;49.760;9.664;2024-02-21T10:33:18;11.00;78.30
2539;DHT22;1280;49.760;9.664;2024-02-21T10:35:48;11.00;78.40
2539;DHT22;1280;49.760;9.664;2024-02-21T10:38:17;11.00;78.20
2539;DHT22;1280;49.760;9.664;2024-02-21T10:40:46;11.10;78.20
2539;DHT22;1280;49.760;9.664;2024-02-21T10:43:15;11.10;78.10
2539;DHT22;1280;49.760;9.664;2024-02-21T10:45:46;11.10;78.10
2539;DHT22;1280;49.760;9.664;2024-02-21T10:48:15;11.20;78.00
2539;DHT22;1280;49.760;9.664;2024-02-21T10:50:53;11.20;78.10
2539;DHT22;1280;49.760;9.664;2024-02-21T10:53:36;11.30;78.00
2539;DHT22;1280;49.760;9.664;2024-02-21T10:56:20;11.30;78.00
2539;DHT22;1280;49.760;9.664;2024-02-21T10:58:49;11.30;77.90
2539;DHT22;1280;49.760;9.664;2024-02-21T11:01:18;11.30;77.80
2539;DHT22;1280;49.760;9.664;2024-02-21T11:03:51;11.40;77.80
2539;DHT22;1280;49.760;9.664;2024-02-21T11:06:23;11.40;77.80
2539;DHT22;1280;49.760;9.664;2024-02-21T11:09:03;11.50;77.80
2539;DHT22;1280;49.760;9.664;2024-02-21T11:11:37;11.50;77.80
2539;DHT22;1280;49.760;9.664;2024-02-21T11:14:09;11.60;77.70
2539;DHT22;1280;49.760;9.664;2024-02-21T11:16:38;11.60;77.60
2539;DHT22;1280;49.760;9.664;2024-02-21T11:19:08;11.60;77.50
2539;DHT22;1280;49.760;9.664;2024-02-21T11:21:40;11.60;77.50
2539;DHT22;1280;49.760;9.664;2024-02-21T11:24:09;11.60;77.20
2539;DHT22;1280;49.760;9.664;2024-02-21T11:26:39;11.60;77.10
2539;DHT22;1280;49.760;9.664;2024-02-21T11:29:08;11.60;77.10
2539;DHT22;1280;49.760;9.664;2024-02-21T11:31:41;11.70;76.90
2539;DHT22;1280;49.760;9.664;2024-02-21T11:34:10;11.70;76.90
2539;DHT22;1280;49.760;9.664;2024-02-21T11:36:48;11.70;76.70
2539;DHT22;1280;49.760;9.664;2024-02-21T11:39:21;11.80;76.50
2539;DHT22;1280;49.760;9.664;2024-02-21T11:42:01;11.80;76.50
2539;DHT22;1280;49.760;9.664;2024-02-21T11:44:30;11.80;76.50
2539;DHT22;1280;49.760;9.664;2024-02-21T11:46:58;11.80;76.40
2539;DHT22;1280;49.760;9.664;2024-02-21T11:49:28;11.80;76.30
2539;DHT22;1280;49.760;9.664;2024-02-21T11:52:02;11.90;76.30
2539;DHT22;1280;49.760;9.664;2024-02-21T11:54:31;11.90;76.10
2539;DHT22;1280;49.760;9.664;2024-02-21T11:56:59;11.90;76.00
2539;DHT22;1280;49.760;9.664;2024-02-21T11:59:30;11.90;76.00
2539;DHT22;1280;49.760;9.664;2024-02-21T12:01:59;11.90;75.70
2539;DHT22;1280;49.760;9.664;2024-02-21T12:04:28;11.90;75.60
2539;DHT22;1280;49.760;9.664;2024-02-21T12:06:58;12.00;75.70
2539;DHT22;1280;49.760;9.664;2024-02-21T12:09:28;12.00;75.60
2539;DHT22;1280;49.760;9.664;2024-02-21T12:11:59;12.00;75.30
2539;DHT22;1280;49.760;9.664;2024-02-21T12:14:28;12.10;74.90
2539;DHT22;1280;49.760;9.664;2024-02-21T12:16:57;12.00;74.50
2539;DHT22;1280;49.760;9.664;2024-02-21T12:19:29;12.00;74.50
2539;DHT22;1280;49.760;9.664;2024-02-21T12:21:59;12.10;74.40
2539;DHT22;1280;49.760;9.664;2024-02-21T12:24:31;12.10;74.20
2539;DHT22;1280;49.760;9.664;2024-02-21T12:26:59;12.10;74.20
2539;DHT22;1280;49.760;9.664;2024-02-21T12:29:30;12.10;74.10
2539;DHT22;1280;49.760;9.664;2024-02-21T12:31:59;12.10;74.00
2539;DHT22;1280;49.760;9.664;2024-02-21T12:34:27;12.10;73.80
2539;DHT22;1280;49.760;9.664;2024-02-21T12:37:14;12.10;73.90
2539;DHT22;1280;49.760;9.664;2024-02-21T12:39:44;12.20;73.70
2539;DHT22;1280;49.760;9.664;2024-02-21T12:42:13;12.20;73.60
2539;DHT22;1280;49.760;9.664;2024-02-21T12:44:41;12.20;73.40
2539;DHT22;1280;49.760;9.664;2024-02-21T12:47:10;12.10;73.30
2539;DHT22;1280;49.760;9.664;2024-02-21T12:49:38;12.10;73.30
2539;DHT22;1280;49.760;9.664;2024-02-21T12:52:11;12.10;73.30
2539;DHT22;1280;49.760;9.664;2024-02-21T12:54:40;12.20;73.20
2539;DHT22;1280;49.760;9.664;2024-02-21T12:57:10;12.20;73.10
2539;DHT22;1280;49.760;9.664;2024-02-21T12:59:38;12.20;73.10
2539;DHT22;1280;49.760;9.664;2024-02-21T13:02:06;12.20;73.00
2539;DHT22;1280;49.760;9.664;2024-02-21T13:04:35;12.20;72.90
2539;DHT22;1280;49.760;9.664;2024-02-21T13:07:07;12.20;72.90
2539;DHT22;1280;49.760;9.664;2024-02-21T13:09:35;12.20;72.90
2539;DHT22;1280;49.760;9.664;2024-02-21T13:12:04;12.20;72.90
2539;DHT22;1280;49.760;9.664;2024-02-21T13:14:34;12.20;72.80
2539;DHT22;1280;49.760;9.664;2024-02-21T13:17:05;12.20;72.80
2539;DHT22;1280;49.760;9.664;2024-02-21T13:19:34;12.20;72.80
2539;DHT22;1280;49.760;9.664;2024-02-21T13:22:02;12.20;72.70
2539;DHT22;1280;49.760;9.664;2024-02-21T13:24:30;12.20;72.70
2539;DHT22;1280;49.760;9.664;2024-02-21T13:27:00;12.30;72.50
2539;DHT22;1280;49.760;9.664;2024-02-21T13:29:28;12.30;72.50
2539;DHT22;1280;49.760;9.664;2024-02-21T13:31:58;12.30;72.50
2539;DHT22;1280;49.760;9.664;2024-02-21T13:34:27;12.20;72.30
2539;DHT22;1280;49.760;9.664;2024-02-21T13:36:55;12.20;72.50
2539;DHT22;1280;49.760;9.664;2024-02-21T13:39:23;12.20;72.30
2539;DHT22;1280;49.760;9.664;2024-02-21T13:41:51;12.20;72.30
2539;DHT22;1280;49.760;9.664;2024-02-21T13:44:19;12.20;72.20
2539;DHT22;1280;49.760;9.664;2024-02-21T13:46:47;12.20;72.20
2539;DHT22;1280;49.760;9.664;2024-02-21T13:49:19;12.20;72.10
2539;DHT22;1280;49.760;9.664;2024-02-21T13:51:47;12.30;72.10
2539;DHT22;1280;49.760;9.664;2024-02-21T13:54:15;12.20;72.00
2539;DHT22;1280;49.760;9.664;2024-02-21T13:56:46;12.20;71.80
2539;DHT22;1280;49.760;9.664;2024-02-21T13:59:14;12.20;71.80
2539;DHT22;1280;49.760;9.664;2024-02-21T14:01:42;12.20;71.80
2539;DHT22;1280;49.760;9.664;2024-02-21T14:04:10;12.20;71.80
2539;DHT22;1280;49.760;9.664;2024-02-21T14:06:40;12.20;71.70
2539;DHT22;1280;49.760;9.664;2024-02-21T14:09:10;12.20;71.70
2539;DHT22;1280;49.760;9.664;2024-02-21T14:11:38;12.20;71.70
2539;DHT22;1280;49.760;9.664;2024-02-21T14:14:08;12.20;71.60
2539;DHT22;1280;49.760;9.664;2024-02-21T14:16:36;12.20;71.60
2539;DHT22;1280;49.760;9.664;2024-02-21T14:19:06;12.20;71.60
2539;DHT22;1280;49.760;9.664;2024-02-21T14:21:35;12.10;71.50
2539;DHT22;1280;49.760;9.664;2024-02-21T14:24:05;12.10;71.60
2539;DHT22;1280;49.760;9.664;2024-02-21T14:26:34;12.10;71.60
2539;DHT22;1280;49.760;9.664;2024-02-21T14:29:03;12.10;71.50
2539;DHT22;1280;49.760;9.664;2024-02-21T14:31:31;12.10;71.50
2539;DHT22;1280;49.760;9.664;2024-02-21T14:34:00;12.20;71.50
2539;DHT22;1280;49.760;9.664;2024-02-21T14:36:29;12.20;71.40
2539;DHT22;1280;49.760;9.664;2024-02-21T14:38:57;12.20;71.40
2539;DHT22;1280;49.760;9.664;2024-02-21T14:41:27;12.20;71.30
2539;DHT22;1280;49.760;9.664;2024-02-21T14:43:56;12.20;71.30
2539;DHT22;1280;49.760;9.664;2024-02-21T14:46:30;12.20;71.20
2539;DHT22;1280;49.760;9.664;2024-02-21T14:48:59;12.10;71.10
2539;DHT22;1280;49.760;9.664;2024-02-21T14:51:27;12.10;70.90
2539;DHT22;1280;49.760;9.664;2024-02-21T14:53:55;12.10;70.90
2539;DHT22;1280;49.760;9.664;2024-02-21T14:56:23;12.10;70.70
2539;DHT22;1280;49.760;9.664;2024-02-21T14:58:52;12.10;70.70
2539;DHT22;1280;49.760;9.664;2024-02-21T15:01:24;12.10;70.70
2539;DHT22;1280;49.760;9.664;2024-02-21T15:03:52;12.00;70.70
2539;DHT22;1280;49.760;9.664;2024-02-21T15:06:21;12.00;70.90
2539;DHT22;1280;49.760;9.664;2024-02-21T15:08:49;12.10;70.70
2539;DHT22;1280;49.760;9.664;2024-02-21T15:11:20;12.00;70.70
2539;DHT22;1280;49.760;9.664;2024-02-21T15:13:51;12.10;70.50
2539;DHT22;1280;49.760;9.664;2024-02-21T15:16:19;12.00;70.40
2539;DHT22;1280;49.760;9.664;2024-02-21T15:18:48;12.00;70.40
2539;DHT22;1280;49.760;9.664;2024-02-21T15:21:17;12.00;70.40
2539;DHT22;1280;49.760;9.664;2024-02-21T15:23:45;12.00;70.40
2539;DHT22;1280;49.760;9.664;2024-02-21T15:26:17;12.00;70.40
2539;DHT22;1280;49.760;9.664;2024-02-21T15:28:46;12.00;70.30
2539;DHT22;1280;49.760;9.664;2024-02-21T15:31:22;12.00;70.30
2539;DHT22;1280;49.760;9.664;2024-02-21T15:33:52;12.00;70.40
2539;DHT22;1280;49.760;9.664;2024-02-21T15:36:25;12.00;70.70
2539;DHT22;1280;49.760;9.664;2024-02-21T15:38:55;12.10;70.70
2539;DHT22;1280;49.760;9.664;2024-02-21T15:41:25;12.20;70.70
2539;DHT22;1280;49.760;9.664;2024-02-21T15:43:53;12.20;70.50
2539;DHT22;1280;49.760;9.664;2024-02-21T15:46:27;12.30;70.50
2539;DHT22;1280;49.760;9.664;2024-02-21T15:48:57;12.30;70.40
2539;DHT22;1280;49.760;9.664;2024-02-21T15:51:25;12.30;70.30
2539;DHT22;1280;49.760;9.664;2024-02-21T15:53:53;12.40;70.30
2539;DHT22;1280;49.760;9.664;2024-02-21T15:56:21;12.40;70.20
2539;DHT22;1280;49.760;9.664;2024-02-21T15:58:51;12.40;70.00
2539;DHT22;1280;49.760;9.664;2024-02-21T16:01:21;12.40;69.80
2539;DHT22;1280;49.760;9.664;2024-02-21T16:03:53;12.40;69.80
2539;DHT22;1280;49.760;9.664;2024-02-21T16:06:22;12.40;69.70
2539;DHT22;1280;49.760;9.664;2024-02-21T16:08:51;12.40;69.60
2539;DHT22;1280;49.760;9.664;2024-02-21T16:11:22;12.40;69.60
2539;DHT22;1280;49.760;9.664;2024-02-21T16:13:50;12.40;69.50
2539;DHT22;1280;49.760;9.664;2024-02-21T16:16:20;12.30;69.30
2539;DHT22;1280;49.760;9.664;2024-02-21T16:18:48;12.30;69.30
2539;DHT22;1280;49.760;9.664;2024-02-21T16:21:17;12.30;69.30